createdAt,value
2019-04-28T00:00:02.343Z,6.80
2019-04-28T00:01:02.361Z,5.60
2019-04-28T00:02:02.405Z,6.60
2019-04-28T00:03:02.311Z,6.20
2019-04-28T00:04:03.490Z,6.20
2019-04-28T00:05:02.283Z,6.00
2019-04-28T00:06:02.273Z,5.40
2019-04-28T00:07:02.320Z,6.50
2019-04-28T00:08:02.263Z,6.50
2019-04-28T00:09:02.243Z,5.80
2019-04-28T00:10:02.234Z,6.40
2019-04-28T00:11:02.244Z,5.80
2019-04-28T00:12:02.213Z,5.70
2019-04-28T00:13:02.272Z,7.00
2019-04-28T00:14:02.196Z,6.10
2019-04-28T00:15:02.527Z,6.70
2019-04-28T00:16:02.161Z,6.00
2019-04-28T00:17:02.160Z,5.80
2019-04-28T00:18:04.121Z,6.10
2019-04-28T00:19:02.145Z,7.10
2019-04-28T00:20:02.111Z,6.50
2019-04-28T00:21:02.110Z,5.70
2019-04-28T00:22:02.093Z,6.00
2019-04-28T00:23:04.185Z,6.10
2019-04-28T00:24:02.163Z,6.70
2019-04-28T00:25:02.064Z,6.00
2019-04-28T00:26:02.067Z,5.90
2019-04-28T00:27:02.041Z,7.00
2019-04-28T00:28:02.043Z,6.60
2019-04-28T00:29:02.021Z,6.20
2019-04-28T00:30:02.249Z,6.50
2019-04-28T00:31:02.473Z,6.40
2019-04-28T00:32:01.993Z,6.40
2019-04-28T00:33:01.980Z,6.50
2019-04-28T00:34:02.074Z,6.60
2019-04-28T00:35:02.401Z,7.00
2019-04-28T00:36:01.943Z,7.00
2019-04-28T00:37:01.943Z,6.80
2019-04-28T00:38:01.923Z,6.90
2019-04-28T00:39:01.919Z,6.30
2019-04-28T00:40:02.001Z,6.40
2019-04-28T00:41:02.383Z,6.80
2019-04-28T00:42:03.315Z,6.80
2019-04-28T00:43:01.861Z,6.30
2019-04-28T00:44:02.021Z,6.60
2019-04-28T00:45:02.058Z,6.60
2019-04-28T00:46:01.913Z,6.80
2019-04-28T00:47:01.826Z,7.30
2019-04-28T00:48:01.812Z,6.10
2019-04-28T00:49:02.198Z,6.20
2019-04-28T00:50:02.254Z,6.10
2019-04-28T00:51:01.936Z,6.40
2019-04-28T00:52:03.052Z,5.60
2019-04-28T00:53:01.858Z,6.70
2019-04-28T00:54:01.746Z,6.40
2019-04-28T00:55:01.761Z,6.00
2019-04-28T00:56:02.155Z,6.50
2019-04-28T00:57:01.804Z,6.50
2019-04-28T00:58:01.709Z,6.90
2019-04-28T00:59:01.804Z,6.20
2019-04-28T01:00:02.528Z,6.70
2019-04-28T01:01:01.682Z,6.50
2019-04-28T01:02:01.743Z,7.10
2019-04-28T01:03:02.164Z,6.80
2019-04-28T01:04:02.163Z,6.50
2019-04-28T01:05:01.949Z,6.40
2019-04-28T01:06:01.947Z,6.60
2019-04-28T01:07:01.715Z,6.90
2019-04-28T01:08:01.632Z,6.90
2019-04-28T01:09:03.808Z,6.40
2019-04-28T01:10:01.616Z,6.60
2019-04-28T01:11:01.863Z,6.60
2019-04-28T01:12:01.894Z,6.60
2019-04-28T01:13:02.137Z,7.20
2019-04-28T01:14:01.797Z,7.10
2019-04-28T01:15:04.495Z,7.40
2019-04-28T01:16:01.514Z,8.00
2019-04-28T01:17:01.493Z,7.90
2019-04-28T01:18:01.482Z,7.30
2019-04-28T01:19:01.481Z,7.00
2019-04-28T01:20:01.542Z,7.40
2019-04-28T01:21:01.456Z,6.70
2019-04-28T01:22:01.454Z,7.00
2019-04-28T01:23:01.444Z,6.70
2019-04-28T01:24:01.492Z,7.10
2019-04-28T01:25:01.495Z,7.10
2019-04-28T01:26:01.401Z,7.00
2019-04-28T01:27:01.397Z,7.20
2019-04-28T01:28:01.388Z,7.20
2019-04-28T01:29:01.444Z,7.20
2019-04-28T01:30:07.705Z,7.70
2019-04-28T01:31:02.342Z,7.50
2019-04-28T01:32:01.361Z,7.40
2019-04-28T01:33:01.334Z,8.30
2019-04-28T01:34:01.641Z,6.70
2019-04-28T01:35:01.304Z,6.90
2019-04-28T01:36:01.282Z,7.30
2019-04-28T01:37:01.272Z,6.50
2019-04-28T01:38:01.262Z,5.70
2019-04-28T01:39:01.261Z,6.40
2019-04-28T01:40:01.251Z,7.00
2019-04-28T01:41:01.571Z,6.80
2019-04-28T01:42:01.222Z,6.90
2019-04-28T01:43:01.224Z,6.90
2019-04-28T01:44:01.286Z,6.60
2019-04-28T01:45:01.192Z,6.90
2019-04-28T01:46:01.292Z,6.60
2019-04-28T01:47:01.266Z,7.50
2019-04-28T01:48:02.283Z,7.20
2019-04-28T01:49:01.155Z,8.00
2019-04-28T01:50:02.011Z,6.80
2019-04-28T01:51:01.131Z,7.00
2019-04-28T01:52:01.381Z,6.80
2019-04-28T01:53:01.101Z,7.10
2019-04-28T01:54:01.185Z,6.70
2019-04-28T01:55:01.087Z,7.60
2019-04-28T01:56:01.071Z,6.90
2019-04-28T01:57:01.516Z,7.30
2019-04-28T01:58:01.069Z,8.00
2019-04-28T01:59:01.032Z,7.50
2019-04-28T02:00:01.115Z,7.10
2019-04-28T02:01:01.025Z,6.90
2019-04-28T02:02:01.023Z,7.10
2019-04-28T02:03:02.074Z,6.90
2019-04-28T02:04:01.067Z,7.30
2019-04-28T02:05:00.972Z,6.20
2019-04-28T02:06:00.961Z,6.80
2019-04-28T02:07:00.942Z,6.50
2019-04-28T02:08:00.954Z,7.20
2019-04-28T02:09:01.018Z,6.50
2019-04-28T02:10:00.951Z,6.90
2019-04-28T02:11:00.914Z,7.30
2019-04-28T02:12:00.929Z,6.60
2019-04-28T02:13:00.902Z,6.30
2019-04-28T02:14:00.879Z,6.80
2019-04-28T02:15:01.270Z,7.10
2019-04-28T02:16:00.852Z,7.10
2019-04-28T02:17:00.842Z,7.20
2019-04-28T02:18:00.822Z,6.50
2019-04-28T02:19:00.823Z,7.20
2019-04-28T02:20:00.909Z,6.10
2019-04-28T02:21:00.802Z,6.20
2019-04-28T02:22:00.794Z,6.40
2019-04-28T02:23:00.784Z,5.80
2019-04-28T02:24:00.775Z,6.10
2019-04-28T02:25:00.834Z,6.80
2019-04-28T02:26:00.763Z,6.40
2019-04-28T02:27:01.095Z,6.10
2019-04-28T02:28:00.722Z,6.80
2019-04-28T02:29:00.724Z,6.00
2019-04-28T02:30:00.732Z,6.60
2019-04-28T02:31:02.297Z,6.20
2019-04-28T02:32:02.075Z,5.80
2019-04-28T02:33:01.624Z,5.40
2019-04-28T02:34:00.855Z,6.30
2019-04-28T02:35:01.618Z,6.00
2019-04-28T02:36:01.395Z,5.90
2019-04-28T02:37:01.616Z,6.40
2019-04-28T02:38:00.666Z,6.10
2019-04-28T02:39:00.929Z,6.00
2019-04-28T02:40:03.552Z,5.70
2019-04-28T02:41:00.595Z,5.70
2019-04-28T02:42:01.363Z,6.50
2019-04-28T02:43:01.301Z,5.50
2019-04-28T02:44:01.074Z,5.40
2019-04-28T02:45:00.791Z,5.70
2019-04-28T02:46:00.759Z,5.50
2019-04-28T02:47:00.987Z,5.60
2019-04-28T02:48:01.090Z,5.70
2019-04-28T02:49:00.898Z,5.70
2019-04-28T02:50:00.827Z,5.60
2019-04-28T02:51:01.226Z,5.70
2019-04-28T02:52:03.025Z,5.30
2019-04-28T02:53:01.640Z,5.50
2019-04-28T02:54:00.635Z,5.40
2019-04-28T02:55:03.244Z,5.20
2019-04-28T02:56:00.962Z,5.70
2019-04-28T02:57:01.280Z,4.90
2019-04-28T02:58:01.508Z,5.40
2019-04-28T02:59:01.099Z,5.80
2019-04-28T03:00:00.615Z,5.30
2019-04-28T03:01:09.766Z,5.10
2019-04-28T03:02:01.352Z,5.10
2019-04-28T03:03:01.438Z,5.30
2019-04-28T03:04:00.469Z,5.90
2019-04-28T03:05:00.587Z,5.10
2019-04-28T03:06:01.507Z,5.10
2019-04-28T03:07:01.401Z,5.70
2019-04-28T03:08:01.184Z,5.20
2019-04-28T03:09:00.398Z,4.80
2019-04-28T03:10:03.264Z,4.90
2019-04-28T03:11:01.131Z,6.00
2019-04-28T03:12:01.528Z,5.30
2019-04-28T03:13:01.146Z,5.20
2019-04-28T03:14:00.975Z,5.50
2019-04-28T03:15:00.528Z,5.50
2019-04-28T03:16:01.572Z,5.20
2019-04-28T03:17:00.888Z,5.60
2019-04-28T03:18:01.887Z,4.60
2019-04-28T03:19:01.210Z,4.60
2019-04-28T03:20:01.061Z,5.90
2019-04-28T03:21:01.708Z,4.20
2019-04-28T03:22:01.280Z,5.10
2019-04-28T03:23:00.921Z,4.50
2019-04-28T03:24:01.237Z,4.40
2019-04-28T03:25:00.878Z,4.30
2019-04-28T03:26:01.423Z,4.50
2019-04-28T03:27:00.636Z,4.20
2019-04-28T03:28:00.684Z,4.70
2019-04-28T03:29:01.055Z,4.40
2019-04-28T03:30:00.939Z,5.00
2019-04-28T03:31:06.490Z,4.20
2019-04-28T03:32:22.789Z,4.30
2019-04-28T03:33:11.166Z,4.30
2019-04-28T03:34:04.095Z,4.40
2019-04-28T03:35:03.033Z,4.60
2019-04-28T03:36:03.657Z,4.00
2019-04-28T03:37:00.983Z,4.70
2019-04-28T03:38:01.224Z,4.90
2019-04-28T03:39:00.728Z,4.70
2019-04-28T03:40:00.603Z,4.40
2019-04-28T03:41:01.034Z,4.40
2019-04-28T03:42:00.175Z,4.50
2019-04-28T03:43:02.841Z,3.70
2019-04-28T03:44:00.559Z,4.50
2019-04-28T03:45:01.013Z,4.40
2019-04-28T03:46:02.794Z,4.10
2019-04-28T03:47:00.723Z,5.00
2019-04-28T03:48:00.389Z,3.70
2019-04-28T03:49:00.721Z,4.50
2019-04-28T03:50:00.178Z,4.40
2019-04-28T03:51:00.717Z,4.10
2019-04-28T03:52:00.428Z,4.90
2019-04-28T03:53:01.077Z,3.70
2019-04-28T03:54:00.651Z,4.70
2019-04-28T03:55:00.579Z,4.40
2019-04-28T03:56:01.626Z,4.50
2019-04-28T03:57:01.330Z,4.50
2019-04-28T03:58:00.902Z,4.30
2019-04-28T03:59:00.444Z,4.50
2019-04-28T04:00:01.550Z,4.00
2019-04-28T04:01:02.700Z,3.70
2019-04-28T04:02:03.259Z,4.20
2019-04-28T04:03:00.798Z,4.30
2019-04-28T04:04:03.071Z,4.80
2019-04-28T04:05:03.275Z,4.40
2019-04-28T04:06:00.807Z,4.10
2019-04-28T04:07:01.467Z,3.60
2019-04-28T04:08:06.762Z,3.80
2019-04-28T04:09:00.290Z,4.40
2019-04-28T04:10:01.013Z,3.60
2019-04-28T04:11:00.306Z,3.70
2019-04-28T04:12:00.317Z,4.10
2019-04-28T04:13:00.913Z,3.80
2019-04-28T04:14:01.680Z,4.50
2019-04-28T04:15:00.829Z,3.90
2019-04-28T04:16:01.631Z,4.30
2019-04-28T04:17:00.201Z,3.50
2019-04-28T04:18:01.321Z,4.40
2019-04-28T04:19:00.742Z,4.10
2019-04-28T04:20:01.814Z,4.20
2019-04-28T04:21:00.749Z,4.40
2019-04-28T04:22:00.345Z,4.50
2019-04-28T04:23:01.373Z,4.10
2019-04-28T04:24:00.970Z,4.20
2019-04-28T04:25:01.265Z,4.40
2019-04-28T04:26:01.770Z,4.80
2019-04-28T04:27:00.890Z,4.30
2019-04-28T04:28:00.436Z,4.90
2019-04-28T04:29:00.961Z,3.90
2019-04-28T04:30:01.557Z,4.40
2019-04-28T04:31:02.506Z,4.10
2019-04-28T04:32:13.519Z,3.80
2019-04-28T04:33:01.262Z,3.70
2019-04-28T04:34:02.607Z,3.60
2019-04-28T04:35:00.670Z,4.00
2019-04-28T04:36:01.551Z,3.00
2019-04-28T04:37:00.677Z,3.60
2019-04-28T04:38:00.535Z,3.30
2019-04-28T04:39:01.860Z,3.70
2019-04-28T04:40:01.395Z,4.50
2019-04-28T04:41:01.453Z,3.70
2019-04-28T04:42:00.619Z,3.00
2019-04-28T04:43:01.525Z,3.90
2019-04-28T04:44:01.155Z,3.20
2019-04-28T04:45:00.483Z,3.10
2019-04-28T04:46:01.430Z,3.80
2019-04-28T04:47:00.959Z,3.60
2019-04-28T04:48:00.538Z,3.60
2019-04-28T04:49:00.703Z,3.10
2019-04-28T04:50:00.248Z,3.30
2019-04-28T04:51:00.765Z,3.40
2019-04-28T04:52:00.424Z,3.30
2019-04-28T04:52:59.157Z,3.30
2019-04-28T04:54:00.996Z,3.40
2019-04-28T04:55:01.247Z,2.40
2019-04-28T04:56:00.341Z,3.30
2019-04-28T04:57:00.035Z,3.10
2019-04-28T04:58:00.730Z,2.90
2019-04-28T04:59:02.204Z,2.90
2019-04-28T05:00:00.059Z,2.60
2019-04-28T05:01:00.672Z,3.00
2019-04-28T05:01:59.991Z,3.40
2019-04-28T05:03:00.858Z,3.30
2019-04-28T05:03:59.651Z,3.20
2019-04-28T05:05:00.470Z,2.70
2019-04-28T05:06:00.115Z,2.40
2019-04-28T05:06:59.691Z,2.80
2019-04-28T05:08:00.330Z,2.90
2019-04-28T05:08:59.953Z,2.70
2019-04-28T05:09:59.528Z,3.40
2019-04-28T05:11:00.038Z,2.60
2019-04-28T05:11:59.776Z,3.10
2019-04-28T05:13:00.243Z,2.80
2019-04-28T05:13:59.681Z,2.20
2019-04-28T05:15:00.508Z,2.40
2019-04-28T05:15:59.819Z,2.70
2019-04-28T05:17:00.690Z,2.60
2019-04-28T05:18:00.249Z,2.50
2019-04-28T05:19:00.110Z,2.80
2019-04-28T05:19:59.715Z,2.80
2019-04-28T05:20:59.461Z,2.60
2019-04-28T05:22:00.007Z,2.30
2019-04-28T05:23:00.615Z,2.40
2019-04-28T05:23:59.642Z,2.10
2019-04-28T05:25:00.076Z,2.30
2019-04-28T05:26:01.558Z,2.10
2019-04-28T05:26:59.769Z,2.80
2019-04-28T05:28:02.688Z,3.00
2019-04-28T05:28:59.574Z,2.20
2019-04-28T05:30:02.454Z,2.20
2019-04-28T05:31:00.093Z,2.20
2019-04-28T05:32:01.866Z,2.10
2019-04-28T05:33:00.267Z,2.40
2019-04-28T05:34:00.000Z,2.20
2019-04-28T05:35:00.124Z,2.00
2019-04-28T05:36:02.655Z,2.20
2019-04-28T05:37:00.515Z,1.80
2019-04-28T05:37:59.771Z,2.60
2019-04-28T05:39:00.152Z,2.20
2019-04-28T05:40:00.660Z,2.20
2019-04-28T05:41:00.295Z,2.30
2019-04-28T05:42:00.649Z,2.60
2019-04-28T05:43:00.487Z,1.70
2019-04-28T05:43:59.635Z,2.40
2019-04-28T05:44:59.910Z,2.10
2019-04-28T05:46:00.178Z,2.80
2019-04-28T05:46:59.538Z,2.20
2019-04-28T05:47:59.450Z,2.90
2019-04-28T05:48:59.963Z,2.10
2019-04-28T05:49:59.895Z,1.90
2019-04-28T05:50:59.925Z,2.20
2019-04-28T05:51:58.495Z,2.10
2019-04-28T05:53:00.465Z,2.50
2019-04-28T05:53:59.523Z,2.10
2019-04-28T05:54:59.829Z,2.50
2019-04-28T05:56:00.066Z,2.30
2019-04-28T05:56:59.727Z,2.20
2019-04-28T05:57:59.954Z,2.50
2019-04-28T05:59:00.507Z,2.30
2019-04-28T06:00:01.035Z,2.60
2019-04-28T06:01:00.130Z,2.10
2019-04-28T06:02:00.570Z,2.30
2019-04-28T06:02:58.393Z,2.50
2019-04-28T06:03:58.375Z,2.60
2019-04-28T06:04:59.978Z,2.20
2019-04-28T06:05:59.974Z,2.10
2019-04-28T06:06:59.754Z,2.00
2019-04-28T06:07:59.622Z,2.60
2019-04-28T06:08:59.821Z,1.90
2019-04-28T06:10:00.050Z,2.20
2019-04-28T06:10:59.909Z,2.10
2019-04-28T06:12:00.032Z,3.40
2019-04-28T06:12:59.764Z,2.10
2019-04-28T06:13:59.893Z,2.00
2019-04-28T06:15:00.032Z,2.40
2019-04-28T06:15:59.864Z,1.70
2019-04-28T06:17:00.350Z,2.20
2019-04-28T06:18:00.025Z,2.10
2019-04-28T06:18:59.994Z,2.00
2019-04-28T06:20:00.055Z,2.10
2019-04-28T06:20:58.184Z,2.10
2019-04-28T06:21:58.172Z,1.60
2019-04-28T06:22:58.232Z,1.70
2019-04-28T06:23:58.156Z,1.70
2019-04-28T06:24:58.193Z,2.20
2019-04-28T06:25:58.142Z,2.20
2019-04-28T06:26:58.126Z,2.30
2019-04-28T06:27:58.125Z,2.30
2019-04-28T06:28:58.135Z,2.30
2019-04-28T06:29:58.083Z,2.10
2019-04-28T06:30:58.075Z,2.20
2019-04-28T06:31:58.088Z,2.20
2019-04-28T06:33:07.742Z,1.90
2019-04-28T06:33:59.106Z,1.90
2019-04-28T06:34:58.025Z,2.20
2019-04-28T06:35:58.018Z,2.30
2019-04-28T06:36:58.005Z,2.30
2019-04-28T06:37:57.993Z,2.10
2019-04-28T06:38:58.063Z,2.00
2019-04-28T06:39:57.975Z,2.00
2019-04-28T06:40:57.965Z,2.10
2019-04-28T06:41:57.955Z,2.50
2019-04-28T06:42:57.936Z,2.50
2019-04-28T06:43:57.976Z,2.30
2019-04-28T06:44:57.911Z,2.50
2019-04-28T06:45:57.893Z,1.90
2019-04-28T06:46:57.906Z,1.80
2019-04-28T06:47:57.875Z,2.10
2019-04-28T06:48:57.875Z,2.40
2019-04-28T06:49:57.944Z,1.80
2019-04-28T06:50:57.861Z,1.70
2019-04-28T06:51:57.847Z,2.10
2019-04-28T06:52:57.823Z,2.10
2019-04-28T06:53:57.827Z,3.20
2019-04-28T06:54:57.874Z,2.30
2019-04-28T06:55:57.807Z,2.40
2019-04-28T06:56:57.774Z,2.10
2019-04-28T06:57:57.764Z,2.10
2019-04-28T06:58:59.130Z,2.10
2019-04-28T06:59:57.827Z,2.30
2019-04-28T07:00:57.797Z,1.90
2019-04-28T07:01:57.728Z,2.10
2019-04-28T07:02:57.715Z,1.50
2019-04-28T07:03:57.703Z,2.00
2019-04-28T07:05:02.019Z,2.20
2019-04-28T07:05:57.688Z,1.80
2019-04-28T07:06:57.687Z,2.50
2019-04-28T07:07:57.665Z,2.10
2019-04-28T07:08:57.825Z,3.20
2019-04-28T07:09:57.635Z,1.80
2019-04-28T07:10:57.718Z,2.20
2019-04-28T07:11:57.623Z,2.10
2019-04-28T07:12:57.628Z,2.00
2019-04-28T07:13:57.596Z,1.80
2019-04-28T07:14:57.595Z,2.60
2019-04-28T07:15:57.659Z,2.60
2019-04-28T07:16:57.570Z,3.10
2019-04-28T07:17:57.568Z,3.90
2019-04-28T07:18:57.537Z,2.70
2019-04-28T07:19:57.529Z,2.30
2019-04-28T07:20:57.597Z,2.10
2019-04-28T07:21:57.506Z,2.00
2019-04-28T07:22:57.590Z,2.10
2019-04-28T07:23:57.509Z,2.50
2019-04-28T07:24:57.478Z,2.10
2019-04-28T07:25:57.457Z,2.00
2019-04-28T07:26:57.459Z,1.70
2019-04-28T07:27:57.457Z,2.10
2019-04-28T07:28:57.440Z,2.40
2019-04-28T07:29:57.415Z,2.20
2019-04-28T07:30:57.407Z,1.90
2019-04-28T07:31:57.420Z,2.00
2019-04-28T07:32:57.524Z,2.20
2019-04-28T07:33:57.372Z,2.20
2019-04-28T07:34:57.365Z,3.60
2019-04-28T07:35:57.359Z,2.40
2019-04-28T07:36:57.342Z,2.10
2019-04-28T07:37:57.408Z,2.40
2019-04-28T07:38:57.308Z,2.10
2019-04-28T07:39:57.311Z,2.30
2019-04-28T07:40:57.309Z,2.40
2019-04-28T07:41:57.300Z,2.30
2019-04-28T07:42:57.350Z,2.10
2019-04-28T07:43:57.354Z,1.80
2019-04-28T07:44:57.258Z,1.90
2019-04-28T07:45:57.251Z,1.80
2019-04-28T07:46:57.231Z,2.30
2019-04-28T07:47:57.241Z,2.40
2019-04-28T07:48:57.198Z,2.50
2019-04-28T07:49:57.201Z,2.40
2019-04-28T07:50:57.178Z,1.90
2019-04-28T07:51:57.173Z,2.30
2019-04-28T07:52:57.252Z,2.20
2019-04-28T07:53:57.149Z,2.20
2019-04-28T07:54:57.230Z,2.60
2019-04-28T07:55:57.142Z,2.40
2019-04-28T07:56:57.121Z,2.50
2019-04-28T07:57:57.132Z,2.10
2019-04-28T07:58:57.102Z,2.30
2019-04-28T07:59:57.111Z,2.30
2019-04-28T08:00:57.081Z,2.40
2019-04-28T08:01:57.063Z,2.10
2019-04-28T08:02:57.140Z,2.50
2019-04-28T08:03:57.630Z,2.30
2019-04-28T08:04:57.113Z,2.20
2019-04-28T08:05:57.021Z,2.50
2019-04-28T08:06:57.010Z,2.20
2019-04-28T08:07:57.011Z,1.90
2019-04-28T08:08:56.993Z,3.00
2019-04-28T08:09:56.983Z,2.30
2019-04-28T08:10:57.063Z,2.40
2019-04-28T08:11:56.964Z,3.10
2019-04-28T08:12:56.947Z,2.10
2019-04-28T08:13:57.011Z,2.60
2019-04-28T08:14:56.912Z,3.40
2019-04-28T08:15:56.923Z,3.10
2019-04-28T08:16:56.904Z,2.70
2019-04-28T08:17:56.895Z,2.10
2019-04-28T08:18:56.965Z,2.70
2019-04-28T08:19:56.871Z,3.10
2019-04-28T08:20:56.851Z,4.30
2019-04-28T08:21:56.843Z,3.70
2019-04-28T08:22:56.845Z,2.80
2019-04-28T08:23:56.914Z,3.50
2019-04-28T08:24:56.825Z,3.50
2019-04-28T08:25:56.807Z,4.30
2019-04-28T08:26:56.793Z,3.90
2019-04-28T08:27:56.841Z,4.40
2019-04-28T08:28:56.778Z,4.10
2019-04-28T08:29:58.658Z,4.30
2019-04-28T08:30:56.752Z,4.60
2019-04-28T08:31:56.816Z,4.70
2019-04-28T08:32:56.725Z,5.50
2019-04-28T08:34:02.719Z,3.90
2019-04-28T08:34:57.804Z,4.50
2019-04-28T08:35:56.693Z,3.70
2019-04-28T08:36:56.686Z,4.50
2019-04-28T08:37:56.684Z,4.80
2019-04-28T08:38:56.662Z,4.60
2019-04-28T08:39:56.646Z,4.40
2019-04-28T08:40:56.656Z,4.10
2019-04-28T08:41:56.635Z,4.60
2019-04-28T08:42:56.694Z,4.00
2019-04-28T08:43:56.606Z,4.10
2019-04-28T08:44:56.638Z,4.70
2019-04-28T08:45:56.666Z,5.20
2019-04-28T08:46:56.577Z,4.30
2019-04-28T08:47:58.037Z,4.40
2019-04-28T08:48:56.560Z,4.30
2019-04-28T08:49:56.536Z,4.30
2019-04-28T08:50:56.614Z,4.60
2019-04-28T08:51:56.548Z,4.50
2019-04-28T08:52:56.504Z,4.20
2019-04-28T08:53:56.486Z,4.90
2019-04-28T08:54:56.478Z,5.30
2019-04-28T08:55:56.590Z,5.30
2019-04-28T08:56:56.468Z,5.40
2019-04-28T08:57:56.459Z,4.70
2019-04-28T08:58:56.450Z,4.50
2019-04-28T08:59:56.429Z,5.10
2019-04-28T09:00:56.418Z,5.30
2019-04-28T09:01:56.490Z,4.60
2019-04-28T09:02:56.408Z,5.40
2019-04-28T09:03:56.391Z,4.70
2019-04-28T09:04:56.389Z,5.50
2019-04-28T09:05:56.358Z,5.20
2019-04-28T09:06:56.360Z,5.80
2019-04-28T09:07:56.367Z,5.00
2019-04-28T09:08:56.330Z,5.10
2019-04-28T09:09:56.318Z,6.50
2019-04-28T09:10:56.311Z,5.20
2019-04-28T09:11:56.289Z,4.70
2019-04-28T09:12:56.372Z,4.70
2019-04-28T09:13:56.278Z,6.00
2019-04-28T09:14:56.260Z,6.00
2019-04-28T09:15:56.251Z,6.90
2019-04-28T09:16:56.239Z,5.50
2019-04-28T09:17:56.244Z,5.40
2019-04-28T09:18:56.234Z,5.70
2019-04-28T09:19:56.312Z,5.80
2019-04-28T09:20:56.232Z,6.10
2019-04-28T09:21:56.194Z,5.90
2019-04-28T09:22:56.173Z,5.20
2019-04-28T09:23:56.253Z,5.70
2019-04-28T09:24:56.172Z,5.80
2019-04-28T09:25:56.143Z,6.00
2019-04-28T09:26:56.142Z,6.40
2019-04-28T09:27:56.132Z,4.80
2019-04-28T09:28:56.110Z,5.40
2019-04-28T09:29:56.181Z,5.20
2019-04-28T09:30:56.161Z,5.90
2019-04-28T09:31:56.071Z,6.20
2019-04-28T09:32:56.156Z,5.60
2019-04-28T09:33:56.131Z,5.30
2019-04-28T09:34:56.067Z,5.90
2019-04-28T09:35:56.031Z,5.30
2019-04-28T09:36:56.011Z,5.90
2019-04-28T09:37:56.012Z,5.40
2019-04-28T09:38:56.072Z,5.60
2019-04-28T09:39:55.983Z,5.20
2019-04-28T09:40:55.973Z,5.80
2019-04-28T09:41:55.977Z,6.20
2019-04-28T09:42:55.972Z,5.00
2019-04-28T09:43:56.031Z,5.30
2019-04-28T09:44:55.943Z,5.20
2019-04-28T09:45:55.914Z,5.60
2019-04-28T09:46:55.954Z,5.90
2019-04-28T09:47:55.953Z,5.80
2019-04-28T09:48:55.913Z,6.50
2019-04-28T09:49:55.884Z,5.40
2019-04-28T09:50:55.874Z,5.60
2019-04-28T09:51:55.856Z,5.80
2019-04-28T09:52:55.843Z,5.90
2019-04-28T09:53:55.856Z,6.10
2019-04-28T09:54:55.827Z,6.00
2019-04-28T09:55:55.896Z,5.60
2019-04-28T09:56:57.126Z,6.30
2019-04-28T09:57:55.812Z,6.00
2019-04-28T09:58:55.788Z,5.80
2019-04-28T09:59:55.763Z,7.10
2019-04-28T10:00:55.756Z,6.00
2019-04-28T10:01:55.768Z,5.30
2019-04-28T10:02:55.802Z,5.80
2019-04-28T10:03:55.796Z,5.40
2019-04-28T10:04:55.705Z,5.70
2019-04-28T10:05:55.696Z,6.40
2019-04-28T10:06:55.685Z,5.30
2019-04-28T10:07:55.748Z,5.10
2019-04-28T10:08:55.677Z,5.50
2019-04-28T10:09:55.688Z,5.90
2019-04-28T10:10:55.658Z,6.10
2019-04-28T10:11:55.650Z,6.50
2019-04-28T10:12:55.659Z,6.60
2019-04-28T10:13:57.033Z,6.60
2019-04-28T10:14:55.607Z,7.00
2019-04-28T10:15:55.597Z,7.40
2019-04-28T10:16:55.590Z,8.00
2019-04-28T10:17:55.567Z,7.60
2019-04-28T10:18:55.648Z,7.50
2019-04-28T10:19:55.550Z,7.60
2019-04-28T10:20:55.538Z,7.80
2019-04-28T10:21:55.527Z,7.70
2019-04-28T10:22:55.531Z,7.10
2019-04-28T10:23:55.588Z,8.00
2019-04-28T10:24:55.511Z,7.90
2019-04-28T10:25:55.491Z,7.70
2019-04-28T10:26:55.481Z,7.80
2019-04-28T10:27:55.481Z,7.70
2019-04-28T10:28:55.518Z,9.70
2019-04-28T10:29:55.451Z,9.00
2019-04-28T10:30:55.442Z,9.50
2019-04-28T10:31:55.432Z,8.50
2019-04-28T10:32:55.517Z,8.80
2019-04-28T10:33:55.404Z,8.00
2019-04-28T10:34:55.474Z,7.90
2019-04-28T10:35:55.386Z,8.10
2019-04-28T10:36:55.370Z,7.40
2019-04-28T10:37:55.352Z,7.40
2019-04-28T10:38:55.430Z,7.20
2019-04-28T10:39:55.412Z,8.30
2019-04-28T10:40:55.357Z,7.90
2019-04-28T10:41:55.300Z,8.00
2019-04-28T10:42:55.299Z,7.70
2019-04-28T10:43:55.280Z,8.70
2019-04-28T10:44:55.361Z,7.90
2019-04-28T10:45:55.271Z,8.10
2019-04-28T10:46:55.253Z,8.30
2019-04-28T10:47:55.244Z,8.90
2019-04-28T10:48:55.264Z,9.00
2019-04-28T10:49:55.334Z,9.10
2019-04-28T10:50:55.201Z,8.20
2019-04-28T10:51:59.502Z,8.30
2019-04-28T10:52:55.194Z,7.70
2019-04-28T10:53:55.181Z,7.90
2019-04-28T10:54:55.164Z,7.80
2019-04-28T10:55:55.243Z,8.20
2019-04-28T10:56:55.145Z,7.90
2019-04-28T10:57:55.195Z,7.70
2019-04-28T10:58:55.203Z,7.50
2019-04-28T10:59:55.125Z,7.80
2019-04-28T11:00:55.115Z,7.70
2019-04-28T11:01:55.105Z,7.60
2019-04-28T11:02:55.163Z,8.20
2019-04-28T11:03:55.076Z,8.10
2019-04-28T11:05:07.420Z,7.90
2019-04-28T11:05:56.049Z,8.10
2019-04-28T11:06:55.036Z,7.40
2019-04-28T11:07:55.038Z,7.40
2019-04-28T11:08:55.025Z,7.70
2019-04-28T11:09:55.017Z,8.00
2019-04-28T11:10:55.076Z,7.50
2019-04-28T11:11:54.995Z,6.70
2019-04-28T11:12:55.007Z,6.90
2019-04-28T11:13:54.968Z,6.20
2019-04-28T11:14:54.945Z,6.90
2019-04-28T11:15:54.995Z,6.70
2019-04-28T11:16:54.928Z,6.90
2019-04-28T11:17:54.916Z,7.30
2019-04-28T11:18:54.917Z,7.10
2019-04-28T11:19:54.898Z,6.50
2019-04-28T11:20:54.892Z,7.20
2019-04-28T11:21:54.886Z,7.10
2019-04-28T11:22:54.865Z,8.00
2019-04-28T11:23:54.850Z,8.50
2019-04-28T11:24:54.834Z,7.60
2019-04-28T11:25:54.928Z,8.30
2019-04-28T11:26:54.811Z,7.70
2019-04-28T11:27:55.526Z,8.10
2019-04-28T11:28:54.797Z,8.60
2019-04-28T11:29:54.860Z,8.20
2019-04-28T11:30:54.770Z,9.00
2019-04-28T11:31:54.849Z,9.50
2019-04-28T11:32:54.748Z,9.10
2019-04-28T11:33:54.733Z,8.80
2019-04-28T11:34:54.741Z,9.60
2019-04-28T11:35:54.732Z,9.80
2019-04-28T11:36:54.781Z,9.60
2019-04-28T11:37:54.769Z,9.30
2019-04-28T11:38:54.691Z,9.10
2019-04-28T11:39:54.682Z,9.60
2019-04-28T11:40:54.662Z,9.00
2019-04-28T11:41:54.730Z,9.20
2019-04-28T11:42:54.629Z,9.90
2019-04-28T11:43:54.632Z,8.50
2019-04-28T11:44:54.610Z,9.60
2019-04-28T11:45:54.613Z,8.20
2019-04-28T11:46:54.601Z,7.80
2019-04-28T11:47:54.600Z,7.20
2019-04-28T11:48:54.573Z,7.10
2019-04-28T11:49:54.562Z,7.20
2019-04-28T11:50:54.562Z,6.60
2019-04-28T11:51:54.552Z,7.60
2019-04-28T11:52:54.544Z,7.40
2019-04-28T11:53:54.604Z,8.40
2019-04-28T11:54:54.511Z,7.60
2019-04-28T11:55:54.495Z,7.10
2019-04-28T11:56:54.482Z,6.90
2019-04-28T11:57:54.482Z,7.50
2019-04-28T11:58:54.463Z,7.00
2019-04-28T11:59:54.535Z,8.00
2019-04-28T12:00:54.442Z,8.60
2019-04-28T12:01:54.431Z,8.60
2019-04-28T12:02:54.425Z,8.70
2019-04-28T12:03:54.434Z,8.30
2019-04-28T12:04:54.409Z,9.50
2019-04-28T12:05:54.383Z,8.50
2019-04-28T12:06:54.378Z,8.60
2019-04-28T12:07:54.390Z,8.60
2019-04-28T12:08:54.342Z,9.10
2019-04-28T12:10:04.301Z,8.30
2019-04-28T12:10:55.338Z,8.70
2019-04-28T12:11:54.329Z,8.90
2019-04-28T12:12:54.315Z,9.00
2019-04-28T12:13:54.374Z,8.30
2019-04-28T12:14:54.296Z,9.30
2019-04-28T12:15:54.271Z,9.00
2019-04-28T12:16:54.253Z,8.90
2019-04-28T12:17:54.264Z,8.60
2019-04-28T12:18:54.243Z,9.40
2019-04-28T12:19:54.312Z,9.40
2019-04-28T12:20:54.229Z,9.10
2019-04-28T12:21:54.215Z,8.80
2019-04-28T12:22:54.227Z,9.20
2019-04-28T12:23:54.274Z,9.40
2019-04-28T12:24:54.187Z,8.70
2019-04-28T12:25:54.167Z,8.40
2019-04-28T12:26:54.161Z,8.80
2019-04-28T12:27:54.142Z,9.70
2019-04-28T12:28:54.206Z,9.50
2019-04-28T12:29:54.123Z,10.10
2019-04-28T12:30:54.114Z,9.80
2019-04-28T12:31:54.106Z,9.10
2019-04-28T12:32:54.096Z,9.80
2019-04-28T12:33:54.086Z,8.80
2019-04-28T12:34:54.174Z,9.00
2019-04-28T12:35:54.057Z,9.30
2019-04-28T12:36:54.051Z,9.30
2019-04-28T12:37:54.044Z,7.60
2019-04-28T12:38:54.014Z,7.00
2019-04-28T12:39:54.015Z,6.30
2019-04-28T12:40:54.082Z,6.00
2019-04-28T12:41:53.995Z,4.70
2019-04-28T12:42:53.984Z,4.30
2019-04-28T12:43:53.969Z,4.60
2019-04-28T12:44:53.956Z,4.30
2019-04-28T12:45:53.980Z,4.40
2019-04-28T12:46:53.956Z,4.30
2019-04-28T12:47:53.927Z,4.50
2019-04-28T12:48:53.917Z,4.00
2019-04-28T12:49:53.911Z,3.90
2019-04-28T12:50:53.884Z,4.40
2019-04-28T12:51:53.955Z,4.30
2019-04-28T12:52:53.886Z,3.80
2019-04-28T12:53:53.858Z,3.90
2019-04-28T12:54:53.847Z,4.10
2019-04-28T12:55:53.837Z,4.10
2019-04-28T12:56:53.903Z,4.30
2019-04-28T12:57:53.825Z,4.60
2019-04-28T12:58:53.817Z,3.90
2019-04-28T12:59:53.809Z,4.80
2019-04-28T13:00:53.787Z,4.20
2019-04-28T13:01:53.788Z,4.40
2019-04-28T13:02:53.778Z,5.00
2019-04-28T13:03:53.766Z,5.00
2019-04-28T13:04:53.725Z,5.20
2019-04-28T13:06:02.377Z,4.80
2019-04-28T13:06:54.797Z,5.40
2019-04-28T13:07:53.776Z,5.10
2019-04-28T13:08:53.772Z,5.90
2019-04-28T13:09:53.690Z,5.10
2019-04-28T13:10:53.682Z,5.20
2019-04-28T13:11:53.666Z,4.80
2019-04-28T13:12:53.657Z,4.50
2019-04-28T13:13:53.654Z,4.60
2019-04-28T13:14:53.709Z,4.60
2019-04-28T13:15:53.620Z,3.90
2019-04-28T13:16:53.605Z,3.60
2019-04-28T13:17:53.596Z,4.00